sensor_id;sensor_type;location;lat;lon;timestamp;pressure;altitude;pressure_sealevel;temperature;humidity
58471;BME280;44258;51.288;12.068;2023-02-27T00:00:48;101518.28;;;0.55;53.68
58471;BME280;44258;51.288;12.068;2023-02-27T00:03:20;101518.25;;;0.53;53.82
58471;BME280;44258;51.288;12.068;2023-02-27T00:05:47;101513.84;;;0.52;53.91
58471;BME280;44258;51.288;12.068;2023-02-27T00:08:13;101511.16;;;0.35;54.14
58471;BME280;44258;51.288;12.068;2023-02-27T00:10:40;101512.84;;;0.21;54.09
58471;BME280;44258;51.288;12.068;2023-02-27T00:13:10;101506.66;;;0.19;54.21
58471;BME280;44258;51.288;12.068;2023-02-27T00:15:36;101513.72;;;0.23;54.45
58471;BME280;44258;51.288;12.068;2023-02-27T00:18:05;101511.97;;;0.25;54.55
58471;BME280;44258;51.288;12.068;2023-02-27T00:20:39;101519.03;;;0.27;54.29
58471;BME280;44258;51.288;12.068;2023-02-27T00:23:06;101519.06;;;0.34;54.67
58471;BME280;44258;51.288;12.068;2023-02-27T00:25:34;101523.47;;;0.35;54.12
58471;BME280;44258;51.288;12.068;2023-02-27T00:28:04;101519.06;;;0.32;54.14
58471;BME280;44258;51.288;12.068;2023-02-27T00:30:30;101523.44;;;0.25;54.53
58471;BME280;44258;51.288;12.068;2023-02-27T00:32:57;101529.53;;;0.15;54.50
58471;BME280;44258;51.288;12.068;2023-02-27T00:35:24;101526.72;;;-0.11;54.80
58471;BME280;44258;51.288;12.068;2023-02-27T00:37:54;101530.16;;;-0.26;55.47
58471;BME280;44258;51.288;12.068;2023-02-27T00:40:21;101532.84;;;-0.17;55.46
58471;BME280;44258;51.288;12.068;2023-02-27T00:42:52;101532.06;;;-0.05;55.05
58471;BME280;44258;51.288;12.068;2023-02-27T00:45:19;101523.28;;;0.04;55.26
58471;BME280;44258;51.288;12.068;2023-02-27T00:47:45;101526.81;;;0.04;54.96
58471;BME280;44258;51.288;12.068;2023-02-27T00:50:12;101522.44;;;0.05;54.86
58471;BME280;44258;51.288;12.068;2023-02-27T00:52:39;101512.72;;;0.08;55.04
58471;BME280;44258;51.288;12.068;2023-02-27T00:55:10;101521.56;;;0.07;55.08
58471;BME280;44258;51.288;12.068;2023-02-27T00:57:37;101520.72;;;0.13;55.16
58471;BME280;44258;51.288;12.068;2023-02-27T01:00:05;101518.03;;;0.08;54.83
58471;BME280;44258;51.288;12.068;2023-02-27T01:02:32;101518.88;;;0.04;54.74
58471;BME280;44258;51.288;12.068;2023-02-27T01:05:00;101519.78;;;0.05;54.92
58471;BME280;44258;51.288;12.068;2023-02-27T01:07:27;101517.94;;;-0.04;54.74
58471;BME280;44258;51.288;12.068;2023-02-27T01:09:56;101525.81;;;-0.15;54.85
58471;BME280;44258;51.288;12.068;2023-02-27T01:12:29;101527.53;;;-0.21;55.03
58471;BME280;44258;51.288;12.068;2023-02-27T01:14:56;101534.50;;;-0.34;55.11
58471;BME280;44258;51.288;12.068;2023-02-27T01:17:23;101525.56;;;-0.48;55.61
58471;BME280;44258;51.288;12.068;2023-02-27T01:19:51;101522.91;;;-0.50;55.72
58471;BME280;44258;51.288;12.068;2023-02-27T01:22:24;101518.53;;;-0.46;55.66
58471;BME280;44258;51.288;12.068;2023-02-27T01:24:50;101527.28;;;-0.52;56.17
58471;BME280;44258;51.288;12.068;2023-02-27T01:27:17;101519.28;;;-0.60;56.75
58471;BME280;44258;51.288;12.068;2023-02-27T01:29:53;101524.47;;;-0.72;57.61
58471;BME280;44258;51.288;12.068;2023-02-27T01:32:19;101521.81;;;-0.72;57.37
58471;BME280;44258;51.288;12.068;2023-02-27T01:34:46;101518.25;;;-0.76;57.02
58471;BME280;44258;51.288;12.068;2023-02-27T01:37:12;101527.94;;;-0.73;57.20
58471;BME280;44258;51.288;12.068;2023-02-27T01:39:39;101524.47;;;-0.69;57.81
58471;BME280;44258;51.288;12.068;2023-02-27T01:42:21;101521.91;;;-0.61;57.45
58471;BME280;44258;51.288;12.068;2023-02-27T01:45:23;101519.38;;;-0.51;57.37
58471;BME280;44258;51.288;12.068;2023-02-27T01:47:59;101518.59;;;-0.37;56.69
58471;BME280;44258;51.288;12.068;2023-02-27T01:50:33;101526.59;;;-0.28;56.24
58471;BME280;44258;51.288;12.068;2023-02-27T01:53:02;101529.34;;;-0.14;56.30
58471;BME280;44258;51.288;12.068;2023-02-27T01:55:32;101531.97;;;-0.14;55.73
58471;BME280;44258;51.288;12.068;2023-02-27T01:58:02;101525.84;;;-0.12;55.96
58471;BME280;44258;51.288;12.068;2023-02-27T02:00:31;101527.69;;;-0.01;56.22
58471;BME280;44258;51.288;12.068;2023-02-27T02:03:06;101527.69;;;0.02;56.06
58471;BME280;44258;51.288;12.068;2023-02-27T02:05:36;101530.38;;;0.08;55.79
58471;BME280;44258;51.288;12.068;2023-02-27T02:08:03;101532.13;;;0.10;56.08
58471;BME280;44258;51.288;12.068;2023-02-27T02:10:39;101538.19;;;-0.11;56.53
58471;BME280;44258;51.288;12.068;2023-02-27T02:13:07;101536.44;;;-0.09;56.14
58471;BME280;44258;51.288;12.068;2023-02-27T02:15:46;101537.31;;;-0.06;56.72
58471;BME280;44258;51.288;12.068;2023-02-27T02:18:21;101541.66;;;-0.15;56.61
58471;BME280;44258;51.288;12.068;2023-02-27T02:21:17;101533.78;;;-0.12;57.03
58471;BME280;44258;51.288;12.068;2023-02-27T02:27:21;101531.25;;;0.10;56.48
58471;BME280;44258;51.288;12.068;2023-02-27T02:30:24;101536.97;;;-0.53;58.17
58471;BME280;44258;51.288;12.068;2023-02-27T02:36:10;101526.59;;;-0.26;58.01
58471;BME280;44258;51.288;12.068;2023-02-27T02:42:01;101522.41;;;0.02;57.27
58471;BME280;44258;51.288;12.068;2023-02-27T02:44:38;101529.47;;;0.06;56.67
58471;BME280;44258;51.288;12.068;2023-02-27T02:47:13;101531.22;;;0.04;57.43
58471;BME280;44258;51.288;12.068;2023-02-27T02:49:42;101526.03;;;0.22;57.70
58471;BME280;44258;51.288;12.068;2023-02-27T02:52:19;101530.50;;;0.25;57.00
58471;BME280;44258;51.288;12.068;2023-02-27T02:54:57;101534.00;;;0.25;57.79
58471;BME280;44258;51.288;12.068;2023-02-27T02:57:30;101533.97;;;0.19;57.93
58471;BME280;44258;51.288;12.068;2023-02-27T03:00:02;101531.38;;;0.25;57.73
58471;BME280;44258;51.288;12.068;2023-02-27T03:02:36;101531.28;;;0.13;57.79
58471;BME280;44258;51.288;12.068;2023-02-27T03:05:07;101532.13;;;0.10;57.83
58471;BME280;44258;51.288;12.068;2023-02-27T03:07:36;101523.38;;;0.18;58.01
58471;BME280;44258;51.288;12.068;2023-02-27T03:10:11;101522.53;;;0.26;58.19
58471;BME280;44258;51.288;12.068;2023-02-27T03:12:41;101526.94;;;0.24;57.56
58471;BME280;44258;51.288;12.068;2023-02-27T03:15:12;101534.03;;;0.27;57.45
58471;BME280;44258;51.288;12.068;2023-02-27T03:17:45;101534.97;;;0.38;57.33
58471;BME280;44258;51.288;12.068;2023-02-27T03:20:17;101540.25;;;0.43;57.26
58471;BME280;44258;51.288;12.068;2023-02-27T03:22:47;101534.91;;;0.32;56.68
58471;BME280;44258;51.288;12.068;2023-02-27T03:25:18;101525.00;;;-0.07;57.96
58471;BME280;44258;51.288;12.068;2023-02-27T03:27:52;101546.75;;;-0.39;58.85
58471;BME280;44258;51.288;12.068;2023-02-27T03:30:24;101544.22;;;-0.27;58.50
58471;BME280;44258;51.288;12.068;2023-02-27T03:32:55;101535.53;;;-0.11;58.25
58471;BME280;44258;51.288;12.068;2023-02-27T03:35:30;101534.75;;;0.06;58.26
58471;BME280;44258;51.288;12.068;2023-02-27T03:38:10;101541.03;;;0.19;57.35
58471;BME280;44258;51.288;12.068;2023-02-27T03:40:48;101548.78;;;-0.04;57.60
58471;BME280;44258;51.288;12.068;2023-02-27T03:43:20;101547.13;;;0.10;57.63
58471;BME280;44258;51.288;12.068;2023-02-27T03:45:53;101548.97;;;0.19;57.81
58471;BME280;44258;51.288;12.068;2023-02-27T03:48:22;101549.94;;;0.38;57.63
58471;BME280;44258;51.288;12.068;2023-02-27T03:50:48;101540.31;;;0.47;57.39
58471;BME280;44258;51.288;12.068;2023-02-27T03:53:24;101550.88;;;0.49;57.60
58471;BME280;44258;51.288;12.068;2023-02-27T03:55:55;101554.41;;;0.51;57.57
58471;BME280;44258;51.288;12.068;2023-02-27T03:58:23;101551.81;;;0.54;56.95
58471;BME280;44258;51.288;12.068;2023-02-27T04:00:50;101566.81;;;0.63;57.11
58471;BME280;44258;51.288;12.068;2023-02-27T04:03:16;101566.88;;;0.70;57.37
58471;BME280;44258;51.288;12.068;2023-02-27T04:05:43;101565.09;;;0.76;57.03
58471;BME280;44258;51.288;12.068;2023-02-27T04:08:23;101573.94;;;0.75;57.28
58471;BME280;44258;51.288;12.068;2023-02-27T04:11:07;101577.44;;;0.69;57.44
58471;BME280;44258;51.288;12.068;2023-02-27T04:13:51;101572.16;;;0.74;57.19
58471;BME280;44258;51.288;12.068;2023-02-27T04:16:45;101579.22;;;0.71;57.34
58471;BME280;44258;51.288;12.068;2023-02-27T04:19:33;101581.00;;;0.76;57.51
58471;BME280;44258;51.288;12.068;2023-02-27T04:22:11;101587.22;;;0.82;57.24
58471;BME280;44258;51.288;12.068;2023-02-27T04:24:45;101585.47;;;0.80;57.30
58471;BME280;44258;51.288;12.068;2023-02-27T04:27:30;101589.88;;;0.87;57.43
58471;BME280;44258;51.288;12.068;2023-02-27T04:30:06;101596.94;;;0.82;57.42
58471;BME280;44258;51.288;12.068;2023-02-27T04:32:42;101590.75;;;0.83;57.31
58471;BME280;44258;51.288;12.068;2023-02-27T04:35:14;101595.19;;;0.87;57.36
58471;BME280;44258;51.288;12.068;2023-02-27T04:37:55;101602.19;;;0.76;57.69
58471;BME280;44258;51.288;12.068;2023-02-27T04:40:27;101604.72;;;0.49;58.59
58471;BME280;44258;51.288;12.068;2023-02-27T04:43:06;101599.41;;;0.48;59.00
58471;BME280;44258;51.288;12.068;2023-02-27T04:45:40;101600.34;;;0.56;58.46
58471;BME280;44258;51.288;12.068;2023-02-27T04:48:14;101603.06;;;0.70;58.46
58471;BME280;44258;51.288;12.068;2023-02-27T04:50:45;101600.47;;;0.82;58.07
58471;BME280;44258;51.288;12.068;2023-02-27T04:53:19;101606.69;;;0.90;57.92
58471;BME280;44258;51.288;12.068;2023-02-27T04:55:50;101596.03;;;0.83;57.70
58471;BME280;44258;51.288;12.068;2023-02-27T04:58:24;101598.66;;;0.77;57.85
58471;BME280;44258;51.288;12.068;2023-02-27T05:00:56;101608.38;;;0.78;58.00
58471;BME280;44258;51.288;12.068;2023-02-27T05:03:27;101604.88;;;0.83;58.02
58471;BME280;44258;51.288;12.068;2023-02-27T05:05:57;101601.38;;;0.90;57.89
58471;BME280;44258;51.288;12.068;2023-02-27T05:08:30;101606.69;;;0.92;58.14
58471;BME280;44258;51.288;12.068;2023-02-27T05:11:04;101603.16;;;0.93;57.77
58471;BME280;44258;51.288;12.068;2023-02-27T05:13:37;101608.44;;;0.88;57.88
58471;BME280;44258;51.288;12.068;2023-02-27T05:16:12;101607.41;;;0.56;58.06
58471;BME280;44258;51.288;12.068;2023-02-27T05:18:42;101616.03;;;0.30;58.54
58471;BME280;44258;51.288;12.068;2023-02-27T05:21:17;101615.00;;;0.09;58.77
58471;BME280;44258;51.288;12.068;2023-02-27T05:24:02;101611.28;;;-0.14;59.50
58471;BME280;44258;51.288;12.068;2023-02-27T05:26:44;101618.59;;;-0.77;61.42
58471;BME280;44258;51.288;12.068;2023-02-27T05:29:20;101616.06;;;-0.65;61.78
58471;BME280;44258;51.288;12.068;2023-02-27T05:31:53;101617.44;;;-0.17;60.19
58471;BME280;44258;51.288;12.068;2023-02-27T05:34:22;101627.69;;;-0.52;61.17
58471;BME280;44258;51.288;12.068;2023-02-27T05:36:56;101626.97;;;-0.33;60.92
58471;BME280;44258;51.288;12.068;2023-02-27T05:39:25;101621.63;;;-0.39;61.03
58471;BME280;44258;51.288;12.068;2023-02-27T05:41:57;101625.31;;;-0.23;60.67
58471;BME280;44258;51.288;12.068;2023-02-27T05:44:32;101629.78;;;-0.14;60.77
58471;BME280;44258;51.288;12.068;2023-02-27T05:47:04;101630.75;;;-0.04;60.05
58471;BME280;44258;51.288;12.068;2023-02-27T05:49:35;101623.75;;;0.02;59.79
58471;BME280;44258;51.288;12.068;2023-02-27T05:52:11;101614.97;;;0.03;60.13
58471;BME280;44258;51.288;12.068;2023-02-27T05:54:46;101623.91;;;0.19;59.66
58471;BME280;44258;51.288;12.068;2023-02-27T05:57:19;101627.56;;;0.38;59.26
58471;BME280;44258;51.288;12.068;2023-02-27T05:59:53;101636.44;;;0.46;58.76
58471;BME280;44258;51.288;12.068;2023-02-27T06:02:24;101627.66;;;0.52;58.62
58471;BME280;44258;51.288;12.068;2023-02-27T06:04:51;101640.03;;;0.58;59.00
58471;BME280;44258;51.288;12.068;2023-02-27T06:07:17;101640.91;;;0.57;58.64
58471;BME280;44258;51.288;12.068;2023-02-27T06:09:45;101649.75;;;0.60;58.48
58471;BME280;44258;51.288;12.068;2023-02-27T06:12:12;101647.16;;;0.68;58.51
58471;BME280;44258;51.288;12.068;2023-02-27T06:14:38;101646.31;;;0.75;58.04
58471;BME280;44258;51.288;12.068;2023-02-27T06:17:06;101647.16;;;0.71;57.73
58471;BME280;44258;51.288;12.068;2023-02-27T06:19:33;101656.84;;;0.66;57.95
58471;BME280;44258;51.288;12.068;2023-02-27T06:21:59;101659.50;;;0.66;58.04
58471;BME280;44258;51.288;12.068;2023-02-27T06:24:26;101658.59;;;0.65;57.95
58471;BME280;44258;51.288;12.068;2023-02-27T06:26:52;101655.91;;;0.59;58.00
58471;BME280;44258;51.288;12.068;2023-02-27T06:29:19;101665.59;;;0.57;58.05
58471;BME280;44258;51.288;12.068;2023-02-27T06:31:48;101655.91;;;0.56;58.15
58471;BME280;44258;51.288;12.068;2023-02-27T06:34:16;101659.44;;;0.58;58.63
58471;BME280;44258;51.288;12.068;2023-02-27T06:36:42;101655.88;;;0.51;59.04
58471;BME280;44258;51.288;12.068;2023-02-27T06:39:09;101657.66;;;0.57;58.76
58471;BME280;44258;51.288;12.068;2023-02-27T06:41:36;101658.59;;;0.62;59.06
58471;BME280;44258;51.288;12.068;2023-02-27T06:44:02;101658.66;;;0.70;58.71
58471;BME280;44258;51.288;12.068;2023-02-27T06:46:29;101674.50;;;0.64;58.66
58471;BME280;44258;51.288;12.068;2023-02-27T06:49:10;101670.91;;;0.54;59.34
58471;BME280;44258;51.288;12.068;2023-02-27T06:51:37;101661.97;;;0.40;59.34
58471;BME280;44258;51.288;12.068;2023-02-27T06:54:07;101677.84;;;0.38;59.45
58471;BME280;44258;51.288;12.068;2023-02-27T06:56:34;101677.84;;;0.43;59.56
58471;BME280;44258;51.288;12.068;2023-02-27T06:59:01;101681.50;;;0.56;59.31
58471;BME280;44258;51.288;12.068;2023-02-27T07:01:27;101681.59;;;0.68;59.01
58471;BME280;44258;51.288;12.068;2023-02-27T07:03:54;101683.31;;;0.67;59.08
58471;BME280;44258;51.288;12.068;2023-02-27T07:06:21;101691.19;;;0.57;59.06
58471;BME280;44258;51.288;12.068;2023-02-27T07:08:49;101692.09;;;0.56;59.59
58471;BME280;44258;51.288;12.068;2023-02-27T07:11:19;101702.66;;;0.57;59.65
58471;BME280;44258;51.288;12.068;2023-02-27T07:13:46;101699.69;;;0.16;60.34
58471;BME280;44258;51.288;12.068;2023-02-27T07:16:12;101704.81;;;-0.03;60.95
58471;BME280;44258;51.288;12.068;2023-02-27T07:18:39;101700.41;;;-0.05;61.30
58471;BME280;44258;51.288;12.068;2023-02-27T07:21:09;101706.53;;;-0.10;61.75
58471;BME280;44258;51.288;12.068;2023-02-27T07:23:36;101696.03;;;-0.00;61.60
58471;BME280;44258;51.288;12.068;2023-02-27T07:26:04;101698.69;;;0.04;61.55
58471;BME280;44258;51.288;12.068;2023-02-27T07:28:30;101700.44;;;0.02;61.45
58471;BME280;44258;51.288;12.068;2023-02-27T07:31:00;101698.69;;;0.01;61.60
58471;BME280;44258;51.288;12.068;2023-02-27T07:33:26;101688.28;;;0.21;61.19
58471;BME280;44258;51.288;12.068;2023-02-27T07:35:53;101692.78;;;0.31;61.23
58471;BME280;44258;51.288;12.068;2023-02-27T07:38:19;101690.03;;;0.19;61.87
58471;BME280;44258;51.288;12.068;2023-02-27T07:40:51;101692.03;;;0.51;61.40
58471;BME280;44258;51.288;12.068;2023-02-27T07:43:19;101697.28;;;0.46;61.45
58471;BME280;44258;51.288;12.068;2023-02-27T07:45:46;101689.25;;;0.34;61.90
58471;BME280;44258;51.288;12.068;2023-02-27T07:48:15;101695.28;;;0.16;62.39
58471;BME280;44258;51.288;12.068;2023-02-27T07:50:41;101696.09;;;0.10;62.75
58471;BME280;44258;51.288;12.068;2023-02-27T07:53:08;101689.09;;;0.13;62.70
58471;BME280;44258;51.288;12.068;2023-02-27T07:55:34;101692.63;;;0.16;62.88
58471;BME280;44258;51.288;12.068;2023-02-27T07:58:01;101692.72;;;0.24;63.13
58471;BME280;44258;51.288;12.068;2023-02-27T08:00:29;101704.25;;;0.34;62.42
58471;BME280;44258;51.288;12.068;2023-02-27T08:02:59;101703.28;;;0.22;62.35
58471;BME280;44258;51.288;12.068;2023-02-27T08:05:26;101706.97;;;0.41;62.64
58471;BME280;44258;51.288;12.068;2023-02-27T08:07:55;101703.91;;;-0.05;62.82
58471;BME280;44258;51.288;12.068;2023-02-27T08:10:22;101709.47;;;0.24;63.42
58471;BME280;44258;51.288;12.068;2023-02-27T08:12:49;101709.88;;;0.77;61.93
58471;BME280;44258;51.288;12.068;2023-02-27T08:15:16;101706.44;;;0.98;61.44
58471;BME280;44258;51.288;12.068;2023-02-27T08:17:45;101707.94;;;0.57;61.79
58471;BME280;44258;51.288;12.068;2023-02-27T08:20:12;101704.69;;;0.92;61.16
58471;BME280;44258;51.288;12.068;2023-02-27T08:22:39;101712.38;;;0.57;61.71
58471;BME280;44258;51.288;12.068;2023-02-27T08:25:08;101713.44;;;0.85;61.33
58471;BME280;44258;51.288;12.068;2023-02-27T08:27:36;101711.56;;;0.71;61.42
58471;BME280;44258;51.288;12.068;2023-02-27T08:30:03;101716.00;;;0.68;61.14
58471;BME280;44258;51.288;12.068;2023-02-27T08:32:30;101716.75;;;0.50;61.16
58471;BME280;44258;51.288;12.068;2023-02-27T08:34:59;101724.25;;;0.02;63.07
58471;BME280;44258;51.288;12.068;2023-02-27T08:37:26;101722.56;;;0.09;63.61
58471;BME280;44258;51.288;12.068;2023-02-27T08:39:53;101734.13;;;0.19;63.23
58471;BME280;44258;51.288;12.068;2023-02-27T08:42:19;101722.38;;;-0.10;63.49
58471;BME280;44258;51.288;12.068;2023-02-27T08:44:49;101729.78;;;0.25;62.97
58471;BME280;44258;51.288;12.068;2023-02-27T08:47:15;101723.75;;;0.45;62.85
58471;BME280;44258;51.288;12.068;2023-02-27T08:49:42;101725.56;;;0.52;61.82
58471;BME280;44258;51.288;12.068;2023-02-27T08:52:10;101729.78;;;0.28;62.84
58471;BME280;44258;51.288;12.068;2023-02-27T08:54:36;101731.38;;;0.09;62.93
58471;BME280;44258;51.288;12.068;2023-02-27T08:57:03;101739.28;;;0.05;63.71
58471;BME280;44258;51.288;12.068;2023-02-27T08:59:29;101724.34;;;-0.70;65.74
58471;BME280;44258;51.288;12.068;2023-02-27T09:01:56;101726.91;;;-0.76;66.45
58471;BME280;44258;51.288;12.068;2023-02-27T09:04:23;101735.16;;;-0.50;65.22
58471;BME280;44258;51.288;12.068;2023-02-27T09:06:50;101732.63;;;-0.39;65.57
58471;BME280;44258;51.288;12.068;2023-02-27T09:09:19;101734.09;;;0.17;64.35
58471;BME280;44258;51.288;12.068;2023-02-27T09:11:48;101732.53;;;0.38;63.25
58471;BME280;44258;51.288;12.068;2023-02-27T09:14:14;101736.06;;;0.43;62.74
58471;BME280;44258;51.288;12.068;2023-02-27T09:16:41;101734.69;;;0.96;62.15
58471;BME280;44258;51.288;12.068;2023-02-27T09:19:07;101731.38;;;1.34;60.82
58471;BME280;44258;51.288;12.068;2023-02-27T09:21:34;101726.09;;;1.35;60.67
58471;BME280;44258;51.288;12.068;2023-02-27T09:24:01;101730.44;;;1.24;60.61
58471;BME280;44258;51.288;12.068;2023-02-27T09:26:32;101736.31;;;0.72;61.71
58471;BME280;44258;51.288;12.068;2023-02-27T09:28:59;101737.72;;;0.28;63.18
58471;BME280;44258;51.288;12.068;2023-02-27T09:31:26;101735.56;;;0.93;62.11
58471;BME280;44258;51.288;12.068;2023-02-27T09:33:53;101733.94;;;1.20;61.12
58471;BME280;44258;51.288;12.068;2023-02-27T09:36:21;101743.50;;;0.91;61.04
58471;BME280;44258;51.288;12.068;2023-02-27T09:38:48;101737.19;;;0.76;61.59
58471;BME280;44258;51.288;12.068;2023-02-27T09:41:38;101739.97;;;0.88;60.37
58471;BME280;44258;51.288;12.068;2023-02-27T09:44:27;101741.59;;;0.74;60.99
58471;BME280;44258;51.288;12.068;2023-02-27T09:46:59;101748.84;;;0.96;60.85
58471;BME280;44258;51.288;12.068;2023-02-27T09:49:31;101746.25;;;1.08;60.74
58471;BME280;44258;51.288;12.068;2023-02-27T09:51:59;101752.28;;;0.84;61.48
58471;BME280;44258;51.288;12.068;2023-02-27T09:54:30;101762.53;;;0.43;62.85
58471;BME280;44258;51.288;12.068;2023-02-27T09:57:02;101760.38;;;1.12;61.17
58471;BME280;44258;51.288;12.068;2023-02-27T09:59:33;101763.78;;;0.88;62.88
58471;BME280;44258;51.288;12.068;2023-02-27T10:02:07;101758.56;;;1.00;61.64
58471;BME280;44258;51.288;12.068;2023-02-27T10:04:41;101757.25;;;0.44;63.39
58471;BME280;44258;51.288;12.068;2023-02-27T10:07:14;101756.88;;;1.08;62.55
58471;BME280;44258;51.288;12.068;2023-02-27T10:09:56;101753.63;;;1.76;60.64
58471;BME280;44258;51.288;12.068;2023-02-27T10:12:43;101752.72;;;1.77;60.59
58471;BME280;44258;51.288;12.068;2023-02-27T10:15:22;101752.81;;;1.98;60.12
58471;BME280;44258;51.288;12.068;2023-02-27T10:17:52;101757.19;;;1.88;59.81
58471;BME280;44258;51.288;12.068;2023-02-27T10:20:23;101751.03;;;2.02;59.83
58471;BME280;44258;51.288;12.068;2023-02-27T10:22:53;101752.81;;;1.98;60.28
58471;BME280;44258;51.288;12.068;2023-02-27T10:25:20;101744.75;;;1.75;60.20
58471;BME280;44258;51.288;12.068;2023-02-27T10:27:53;101749.22;;;1.76;60.52
58471;BME280;44258;51.288;12.068;2023-02-27T10:30:22;101743.88;;;1.64;61.31
58471;BME280;44258;51.288;12.068;2023-02-27T10:32:53;101750.03;;;1.55;61.13
58471;BME280;44258;51.288;12.068;2023-02-27T10:35:32;101748.38;;;2.00;59.26
58471;BME280;44258;51.288;12.068;2023-02-27T10:38:02;101746.56;;;1.81;59.46
58471;BME280;44258;51.288;12.068;2023-02-27T10:40:30;101756.31;;;1.86;59.24
58471;BME280;44258;51.288;12.068;2023-02-27T10:42:59;101749.28;;;2.15;58.71
58471;BME280;44258;51.288;12.068;2023-02-27T10:45:30;101761.81;;;0.61;62.47
58471;BME280;44258;51.288;12.068;2023-02-27T10:47:57;101756.06;;;1.28;61.71
58471;BME280;44258;51.288;12.068;2023-02-27T10:50:31;101764.31;;;2.09;59.80
58471;BME280;44258;51.288;12.068;2023-02-27T10:53:00;101754.63;;;2.35;58.65
58471;BME280;44258;51.288;12.068;2023-02-27T10:55:28;101759.91;;;2.55;58.39
58471;BME280;44258;51.288;12.068;2023-02-27T10:57:57;101753.75;;;2.31;57.99
58471;BME280;44258;51.288;12.068;2023-02-27T11:00:28;101752.84;;;2.30;57.50
58471;BME280;44258;51.288;12.068;2023-02-27T11:02:56;101751.97;;;2.68;57.48
58471;BME280;44258;51.288;12.068;2023-02-27T11:05:25;101751.97;;;2.33;57.12
58471;BME280;44258;51.288;12.068;2023-02-27T11:07:53;101752.84;;;2.69;56.61
58471;BME280;44258;51.288;12.068;2023-02-27T11:10:22;101751.09;;;2.51;56.83
58471;BME280;44258;51.288;12.068;2023-02-27T11:12:59;101743.09;;;2.52;56.29
58471;BME280;44258;51.288;12.068;2023-02-27T11:15:28;101750.22;;;2.30;56.42
58471;BME280;44258;51.288;12.068;2023-02-27T11:18:18;101749.16;;;1.58;56.86
58471;BME280;44258;51.288;12.068;2023-02-27T11:20:46;101747.50;;;2.07;56.76
58471;BME280;44258;51.288;12.068;2023-02-27T11:23:16;101748.38;;;2.08;57.23
58471;BME280;44258;51.288;12.068;2023-02-27T11:25:43;101738.69;;;2.31;55.87
58471;BME280;44258;51.288;12.068;2023-02-27T11:28:19;101746.63;;;2.11;56.53
58471;BME280;44258;51.288;12.068;2023-02-27T11:31:00;101737.75;;;2.02;56.91
58471;BME280;44258;51.288;12.068;2023-02-27T11:33:28;101744.91;;;2.43;56.18
58471;BME280;44258;51.288;12.068;2023-02-27T11:36:01;101739.56;;;2.32;56.40
58471;BME280;44258;51.288;12.068;2023-02-27T11:38:29;101743.09;;;2.46;56.20
58471;BME280;44258;51.288;12.068;2023-02-27T11:40:59;101729.84;;;2.76;56.05
58471;BME280;44258;51.288;12.068;2023-02-27T11:43:29;101727.97;;;3.11;55.03
58471;BME280;44258;51.288;12.068;2023-02-27T11:46:10;101719.94;;;3.31;53.75
58471;BME280;44258;51.288;12.068;2023-02-27T11:48:39;101723.56;;;3.07;53.89
58471;BME280;44258;51.288;12.068;2023-02-27T11:51:23;101711.97;;;3.33;53.62
58471;BME280;44258;51.288;12.068;2023-02-27T11:54:06;101706.84;;;2.45;53.26
58471;BME280;44258;51.288;12.068;2023-02-27T11:56:36;101713.00;;;2.72;53.36
58471;BME280;44258;51.288;12.068;2023-02-27T11:59:15;101713.91;;;2.34;54.62
58471;BME280;44258;51.288;12.068;2023-02-27T12:01:52;101712.13;;;2.78;52.98
58471;BME280;44258;51.288;12.068;2023-02-27T12:04:23;101713.03;;;2.12;52.08
58471;BME280;44258;51.288;12.068;2023-02-27T12:06:54;101711.25;;;2.29;53.27
58471;BME280;44258;51.288;12.068;2023-02-27T12:09:35;101720.09;;;2.05;52.98
58471;BME280;44258;51.288;12.068;2023-02-27T12:12:14;101717.41;;;1.93;54.42
58471;BME280;44258;51.288;12.068;2023-02-27T12:14:51;101712.09;;;1.98;53.56
58471;BME280;44258;51.288;12.068;2023-02-27T12:17:25;101710.38;;;2.32;53.48
58471;BME280;44258;51.288;12.068;2023-02-27T12:20:06;101713.88;;;2.02;54.55
58471;BME280;44258;51.288;12.068;2023-02-27T12:22:44;101709.47;;;2.02;54.87
58471;BME280;44258;51.288;12.068;2023-02-27T12:25:21;101707.72;;;2.21;54.50
58471;BME280;44258;51.288;12.068;2023-02-27T12:27:53;101697.94;;;2.72;53.64
58471;BME280;44258;51.288;12.068;2023-02-27T12:30:33;101697.94;;;2.79;53.96
58471;BME280;44258;51.288;12.068;2023-02-27T12:33:10;101706.81;;;2.68;54.30
58471;BME280;44258;51.288;12.068;2023-02-27T12:35:39;101703.19;;;3.12;53.14
58471;BME280;44258;51.288;12.068;2023-02-27T12:38:13;101710.38;;;2.35;54.89
58471;BME280;44258;51.288;12.068;2023-02-27T12:40:45;101700.66;;;2.39;54.64
58471;BME280;44258;51.288;12.068;2023-02-27T12:43:21;101704.16;;;2.05;54.78
58471;BME280;44258;51.288;12.068;2023-02-27T12:46:14;101704.16;;;2.85;54.11
58471;BME280;44258;51.288;12.068;2023-02-27T12:48:59;101709.38;;;3.10;52.55
58471;BME280;44258;51.288;12.068;2023-02-27T12:51:36;101704.16;;;1.99;53.62
58471;BME280;44258;51.288;12.068;2023-02-27T12:54:16;101711.19;;;1.79;54.41
58471;BME280;44258;51.288;12.068;2023-02-27T12:56:54;101703.25;;;2.02;54.55
58471;BME280;44258;51.288;12.068;2023-02-27T12:59:38;101702.34;;;1.66;55.18
58471;BME280;44258;51.288;12.068;2023-02-27T13:02:19;101699.78;;;2.43;54.12
58471;BME280;44258;51.288;12.068;2023-02-27T13:05:00;101697.06;;;2.64;54.01
58471;BME280;44258;51.288;12.068;2023-02-27T13:07:33;101698.00;;;2.51;54.26
58471;BME280;44258;51.288;12.068;2023-02-27T13:10:09;101695.28;;;2.80;53.01
58471;BME280;44258;51.288;12.068;2023-02-27T13:12:48;101688.22;;;2.68;53.53
58471;BME280;44258;51.288;12.068;2023-02-27T13:15:20;101697.06;;;2.64;54.44
58471;BME280;44258;51.288;12.068;2023-02-27T13:17:54;101703.19;;;1.56;56.32
58471;BME280;44258;51.288;12.068;2023-02-27T13:20:35;101697.09;;;2.20;55.22